sensor_id;sensor_type;location;lat;lon;timestamp;temperature;humidity
33460;DHT22;19795;53.160;6.612;2022-08-03T19:26:34;22.60;99.90
33460;DHT22;19795;53.160;6.612;2022-08-03T19:29:02;22.50;99.90
33460;DHT22;19795;53.160;6.612;2022-08-03T19:34:06;22.10;99.90
33460;DHT22;19795;53.160;6.612;2022-08-03T19:36:33;22.10;99.90
33460;DHT22;19795;53.160;6.612;2022-08-03T19:39:01;22.00;99.90
33460;DHT22;19795;53.160;6.612;2022-08-03T19:41:33;21.90;99.90
33460;DHT22;19795;53.160;6.612;2022-08-03T19:44:03;21.80;99.90
33460;DHT22;19795;53.160;6.612;2022-08-03T19:46:42;21.80;99.90
33460;DHT22;19795;53.160;6.612;2022-08-03T19:49:15;21.70;99.90
33460;DHT22;19795;53.160;6.612;2022-08-03T19:51:53;21.60;99.90
33460;DHT22;19795;53.160;6.612;2022-08-03T19:54:21;21.50;99.90
33460;DHT22;19795;53.160;6.612;2022-08-03T19:56:48;21.40;99.90
33460;DHT22;19795;53.160;6.612;2022-08-03T19:59:18;21.30;99.90
33460;DHT22;19795;53.160;6.612;2022-08-03T20:01:44;21.30;99.90
33460;DHT22;19795;53.160;6.612;2022-08-03T20:04:11;21.20;99.90
33460;DHT22;19795;53.160;6.612;2022-08-03T20:06:38;21.20;99.90
33460;DHT22;19795;53.160;6.612;2022-08-03T20:09:04;21.20;99.90
33460;DHT22;19795;53.160;6.612;2022-08-03T20:11:30;21.10;99.90
33460;DHT22;19795;53.160;6.612;2022-08-03T20:13:57;21.10;99.90
33460;DHT22;19795;53.160;6.612;2022-08-03T20:16:23;21.00;99.90
33460;DHT22;19795;53.160;6.612;2022-08-03T20:18:49;21.00;99.90
33460;DHT22;19795;53.160;6.612;2022-08-03T20:21:15;20.90;99.90
33460;DHT22;19795;53.160;6.612;2022-08-03T20:23:43;20.80;99.90
33460;DHT22;19795;53.160;6.612;2022-08-03T20:26:14;20.80;99.90
33460;DHT22;19795;53.160;6.612;2022-08-03T20:28:51;20.70;99.90
33460;DHT22;19795;53.160;6.612;2022-08-03T20:31:18;20.70;99.90
33460;DHT22;19795;53.160;6.612;2022-08-03T20:33:44;20.60;99.90
33460;DHT22;19795;53.160;6.612;2022-08-03T20:36:12;20.60;99.90
33460;DHT22;19795;53.160;6.612;2022-08-03T20:38:37;20.60;99.90
33460;DHT22;19795;53.160;6.612;2022-08-03T20:41:03;20.50;99.90
33460;DHT22;19795;53.160;6.612;2022-08-03T20:43:29;20.50;99.90
33460;DHT22;19795;53.160;6.612;2022-08-03T20:45:55;20.40;99.90
33460;DHT22;19795;53.160;6.612;2022-08-03T20:48:21;20.40;99.90
33460;DHT22;19795;53.160;6.612;2022-08-03T20:50:47;20.20;99.90
33460;DHT22;19795;53.160;6.612;2022-08-03T20:53:13;20.10;99.90
33460;DHT22;19795;53.160;6.612;2022-08-03T20:55:39;20.10;99.90
33460;DHT22;19795;53.160;6.612;2022-08-03T20:58:07;20.10;99.90
33460;DHT22;19795;53.160;6.612;2022-08-03T21:00:33;20.20;99.90
33460;DHT22;19795;53.160;6.612;2022-08-03T21:02:59;20.10;99.90
33460;DHT22;19795;53.160;6.612;2022-08-03T21:05:24;20.10;99.90
33460;DHT22;19795;53.160;6.612;2022-08-03T21:07:53;20.10;99.90
33460;DHT22;19795;53.160;6.612;2022-08-03T21:10:20;20.10;99.90
33460;DHT22;19795;53.160;6.612;2022-08-03T21:13:01;20.10;99.90
33460;DHT22;19795;53.160;6.612;2022-08-03T21:15:30;20.10;99.90
33460;DHT22;19795;53.160;6.612;2022-08-03T21:17:59;20.10;99.90
33460;DHT22;19795;53.160;6.612;2022-08-03T21:20:27;20.10;99.90
33460;DHT22;19795;53.160;6.612;2022-08-03T21:22:55;20.00;99.90
33460;DHT22;19795;53.160;6.612;2022-08-03T21:25:31;20.00;99.90
33460;DHT22;19795;53.160;6.612;2022-08-03T21:27:59;19.90;99.90
33460;DHT22;19795;53.160;6.612;2022-08-03T21:30:27;19.90;99.90
33460;DHT22;19795;53.160;6.612;2022-08-03T21:32:55;20.00;99.90
33460;DHT22;19795;53.160;6.612;2022-08-03T21:35:22;20.00;99.90
33460;DHT22;19795;53.160;6.612;2022-08-03T21:37:49;20.00;99.90
33460;DHT22;19795;53.160;6.612;2022-08-03T21:40:35;20.00;99.90
33460;DHT22;19795;53.160;6.612;2022-08-03T21:43:01;20.00;99.90
33460;DHT22;19795;53.160;6.612;2022-08-03T21:45:27;19.90;99.90
33460;DHT22;19795;53.160;6.612;2022-08-03T21:47:53;19.90;99.90
33460;DHT22;19795;53.160;6.612;2022-08-03T21:50:20;19.90;99.90
33460;DHT22;19795;53.160;6.612;2022-08-03T21:52:47;19.90;99.90
33460;DHT22;19795;53.160;6.612;2022-08-03T21:55:14;19.90;99.90
33460;DHT22;19795;53.160;6.612;2022-08-03T21:57:43;19.90;99.90
33460;DHT22;19795;53.160;6.612;2022-08-03T22:00:17;20.00;99.90
33460;DHT22;19795;53.160;6.612;2022-08-03T22:02:54;20.00;99.90
33460;DHT22;19795;53.160;6.612;2022-08-03T22:05:20;19.90;99.90
33460;DHT22;19795;53.160;6.612;2022-08-03T22:07:46;19.90;99.90
33460;DHT22;19795;53.160;6.612;2022-08-03T22:10:13;19.90;99.90
33460;DHT22;19795;53.160;6.612;2022-08-03T22:12:39;19.80;99.90
33460;DHT22;19795;53.160;6.612;2022-08-03T22:15:08;19.80;99.90
33460;DHT22;19795;53.160;6.612;2022-08-03T22:17:36;19.80;99.90
33460;DHT22;19795;53.160;6.612;2022-08-03T22:20:03;19.80;99.90
33460;DHT22;19795;53.160;6.612;2022-08-03T22:22:29;19.80;99.90
33460;DHT22;19795;53.160;6.612;2022-08-03T22:25:04;19.80;99.90
33460;DHT22;19795;53.160;6.612;2022-08-03T22:27:30;19.80;99.90
33460;DHT22;19795;53.160;6.612;2022-08-03T22:29:57;19.80;99.90
33460;DHT22;19795;53.160;6.612;2022-08-03T22:32:24;19.70;99.90
33460;DHT22;19795;53.160;6.612;2022-08-03T22:34:51;19.70;99.90
33460;DHT22;19795;53.160;6.612;2022-08-03T22:37:19;19.70;99.90
33460;DHT22;19795;53.160;6.612;2022-08-03T22:39:46;19.60;99.90
33460;DHT22;19795;53.160;6.612;2022-08-03T22:42:12;19.60;99.90
33460;DHT22;19795;53.160;6.612;2022-08-03T22:44:38;19.60;99.90
33460;DHT22;19795;53.160;6.612;2022-08-03T22:47:04;19.50;99.90
33460;DHT22;19795;53.160;6.612;2022-08-03T22:49:31;19.50;99.90
33460;DHT22;19795;53.160;6.612;2022-08-03T22:51:57;19.60;99.90
33460;DHT22;19795;53.160;6.612;2022-08-03T22:54:23;19.50;99.90
33460;DHT22;19795;53.160;6.612;2022-08-03T22:56:50;19.50;99.90
33460;DHT22;19795;53.160;6.612;2022-08-03T22:59:16;19.40;99.90
33460;DHT22;19795;53.160;6.612;2022-08-03T23:01:42;19.40;99.90
33460;DHT22;19795;53.160;6.612;2022-08-03T23:04:09;19.30;99.90
33460;DHT22;19795;53.160;6.612;2022-08-03T23:06:36;19.30;99.90
33460;DHT22;19795;53.160;6.612;2022-08-03T23:09:05;19.40;99.90
33460;DHT22;19795;53.160;6.612;2022-08-03T23:11:34;19.40;99.90
33460;DHT22;19795;53.160;6.612;2022-08-03T23:14:06;19.30;99.90
33460;DHT22;19795;53.160;6.612;2022-08-03T23:16:38;19.30;99.90
33460;DHT22;19795;53.160;6.612;2022-08-03T23:19:09;19.10;99.90
33460;DHT22;19795;53.160;6.612;2022-08-03T23:21:35;19.30;99.90
33460;DHT22;19795;53.160;6.612;2022-08-03T23:24:04;19.30;99.90
33460;DHT22;19795;53.160;6.612;2022-08-03T23:26:32;19.30;99.90
33460;DHT22;19795;53.160;6.612;2022-08-03T23:29:02;19.20;99.90
33460;DHT22;19795;53.160;6.612;2022-08-03T23:31:29;19.30;99.90
33460;DHT22;19795;53.160;6.612;2022-08-03T23:33:56;19.40;99.90
33460;DHT22;19795;53.160;6.612;2022-08-03T23:36:47;19.50;99.90
33460;DHT22;19795;53.160;6.612;2022-08-03T23:39:15;19.50;99.90
33460;DHT22;19795;53.160;6.612;2022-08-03T23:41:41;19.60;99.90
33460;DHT22;19795;53.160;6.612;2022-08-03T23:44:09;19.70;99.90
33460;DHT22;19795;53.160;6.612;2022-08-03T23:46:35;19.70;99.90
33460;DHT22;19795;53.160;6.612;2022-08-03T23:49:02;19.70;99.90
33460;DHT22;19795;53.160;6.612;2022-08-03T23:56:53;19.70;99.90
